Time;durP1;ratioP1;P1;durP2;ratioP2;P2;SDS_P1;SDS_P2;PMS_P1;PMS_P2;Temp;Humidity;BMP_temperature;BMP_pressure;BME280_temperature;BME280_humidity;BME280_pressure;Samples;Min_cycle;Max_cycle;Signal;HPM_P1;HPM_P2
2023/12/16 00:02:22;;;;;;;25.27;7.47;;;;;;;;;;5074786;28;20439;-79
2023/12/16 00:04:49;;;;;;;39.03;7.20;;;;;;;;;;5074453;28;20848;-80
2023/12/16 00:07:15;;;;;;;24.83;7.73;;;;;;;;;;5073509;28;20450;-80
2023/12/16 00:09:42;;;;;;;24.77;9.23;;;;;;;;;;5074126;28;20467;-82
2023/12/16 00:12:10;;;;;;;23.03;8.00;;;;;;;;;;5074484;28;20446;-81
2023/12/16 00:14:37;;;;;;;13.50;5.97;;;;;;;;;;5073909;28;20471;-82
2023/12/16 00:17:04;;;;;;;17.33;8.00;;;;;;;;;;5074390;28;20526;-81
2023/12/16 00:19:30;;;;;;;35.07;8.20;;;;;;;;;;5073976;28;20467;-80
2023/12/16 00:21:57;;;;;;;27.80;7.77;;;;;;;;;;5074138;28;20443;-82
2023/12/16 00:24:24;;;;;;;21.67;7.20;;;;;;;;;;5073375;28;20475;-80
2023/12/16 00:26:50;;;;;;;18.70;6.90;;;;;;;;;;5074324;28;20435;-80
2023/12/16 00:29:18;;;;;;;17.17;7.23;;;;;;;;;;5073873;28;20467;-80
2023/12/16 00:31:45;;;;;;;18.40;6.90;;;;;;;;;;5074184;28;20442;-80
2023/12/16 00:34:11;;;;;;;16.63;7.50;;;;;;;;;;5073496;28;20475;-80
2023/12/16 00:36:41;;;;;;;16.50;6.27;;;;;;;;;;5077519;28;20439;-81
2023/12/16 00:39:07;;;;;;;23.67;6.87;;;;;;;;;;5076822;28;20988;-80
2023/12/16 00:41:34;;;;;;;15.40;5.80;;;;;;;;;;5074294;28;20462;-80
2023/12/16 00:44:01;;;;;;;17.33;7.63;;;;;;;;;;5072717;28;20568;-80
2023/12/16 00:46:29;;;;;;;21.97;7.03;;;;;;;;;;5072826;28;20442;-80
2023/12/16 00:48:56;;;;;;;15.30;6.53;;;;;;;;;;5072265;28;20501;-80
2023/12/16 00:51:22;;;;;;;22.00;8.60;;;;;;;;;;5073774;28;20435;-80
2023/12/16 00:53:49;;;;;;;18.33;7.40;;;;;;;;;;5073425;28;20443;-80
2023/12/16 00:56:15;;;;;;;23.47;6.53;;;;;;;;;;5072400;28;20533;-80
2023/12/16 00:58:42;;;;;;;16.20;7.03;;;;;;;;;;5073443;28;20505;-80
2023/12/16 01:01:08;;;;;;;15.10;6.33;;;;;;;;;;5073468;28;21019;-80
2023/12/16 01:03:37;;;;;;;21.90;7.50;;;;;;;;;;5073395;28;20527;-80
2023/12/16 01:06:04;;;;;;;13.43;6.47;;;;;;;;;;5073818;28;20489;-80
2023/12/16 01:08:30;;;;;;;22.90;7.87;;;;;;;;;;5073864;28;20439;-80
2023/12/16 01:10:57;;;;;;;20.10;6.63;;;;;;;;;;5071759;28;21063;-80
2023/12/16 01:13:23;;;;;;;16.27;6.47;;;;;;;;;;5072193;28;20439;-80
2023/12/16 01:15:50;;;;;;;17.43;8.23;;;;;;;;;;5072922;28;21059;-80
2023/12/16 01:18:17;;;;;;;16.60;5.77;;;;;;;;;;5072982;28;20573;-80
2023/12/16 01:20:45;;;;;;;12.90;5.87;;;;;;;;;;5073103;28;20565;-80
2023/12/16 01:23:11;;;;;;;13.23;6.53;;;;;;;;;;5073291;28;20521;-80
2023/12/16 01:25:38;;;;;;;16.87;6.83;;;;;;;;;;5072870;28;20989;-80
2023/12/16 01:28:05;;;;;;;17.37;6.60;;;;;;;;;;5073497;28;20430;-80
2023/12/16 01:30:31;;;;;;;11.63;6.40;;;;;;;;;;5072688;28;20530;-80
2023/12/16 01:32:58;;;;;;;12.70;6.60;;;;;;;;;;5073510;28;20468;-80
2023/12/16 01:35:25;;;;;;;25.37;7.20;;;;;;;;;;5071856;28;20479;-80
2023/12/16 01:37:52;;;;;;;18.47;7.23;;;;;;;;;;5073318;28;20482;-80
2023/12/16 01:40:19;;;;;;;13.13;6.10;;;;;;;;;;5072886;28;20467;-80
2023/12/16 01:42:46;;;;;;;9.10;5.23;;;;;;;;;;5073430;28;20446;-80
2023/12/16 01:45:13;;;;;;;21.73;7.80;;;;;;;;;;5072513;28;20479;-80
2023/12/16 01:47:40;;;;;;;19.63;6.73;;;;;;;;;;5073233;28;20526;-80
2023/12/16 01:50:07;;;;;;;16.40;5.90;;;;;;;;;;5072678;28;20463;-80
2023/12/16 01:52:34;;;;;;;20.57;6.63;;;;;;;;;;5072936;28;20835;-80
2023/12/16 01:55:02;;;;;;;23.43;6.53;;;;;;;;;;5072692;28;20471;-80
2023/12/16 01:57:28;;;;;;;22.63;7.83;;;;;;;;;;5072730;28;20458;-80
2023/12/16 01:59:55;;;;;;;17.13;5.93;;;;;;;;;;5073730;28;20467;-80
2023/12/16 02:02:22;;;;;;;18.13;5.60;;;;;;;;;;5077088;28;20447;-80
2023/12/16 02:04:49;;;;;;;17.77;5.83;;;;;;;;;;5076656;28;20466;-80
2023/12/16 02:07:15;;;;;;;17.93;5.60;;;;;;;;;;5077050;28;20434;-80
2023/12/16 02:09:41;;;;;;;12.83;5.00;;;;;;;;;;5076451;28;20470;-80
2023/12/16 02:12:09;;;;;;;11.57;5.20;;;;;;;;;;5076843;28;20434;-80
2023/12/16 02:14:36;;;;;;;7.83;4.57;;;;;;;;;;5076268;28;20498;-80
2023/12/16 02:17:02;;;;;;;17.73;5.87;;;;;;;;;;5076831;28;20521;-80
2023/12/16 02:19:29;;;;;;;13.83;5.50;;;;;;;;;;5076270;28;20494;-80
2023/12/16 02:21:56;;;;;;;11.53;5.23;;;;;;;;;;5076494;28;20457;-80
2023/12/16 02:24:24;;;;;;;14.10;6.27;;;;;;;;;;5075871;28;20481;-80
2023/12/16 02:26:50;;;;;;;18.67;5.93;;;;;;;;;;5076458;28;20540;-80
2023/12/16 02:29:17;;;;;;;11.50;5.10;;;;;;;;;;5076143;28;20549;-81
2023/12/16 02:31:43;;;;;;;15.10;5.50;;;;;;;;;;5076168;28;20439;-80
2023/12/16 02:34:11;;;;;;;18.13;5.70;;;;;;;;;;5075894;28;20557;-80
2023/12/16 02:36:37;;;;;;;22.20;5.97;;;;;;;;;;5075985;28;20898;-80
2023/12/16 02:39:05;;;;;;;15.60;6.27;;;;;;;;;;5075345;28;20463;-80
2023/12/16 02:41:33;;;;;;;17.63;6.03;;;;;;;;;;5058282;28;20442;-80
2023/12/16 02:44:00;;;;;;;8.13;5.50;;;;;;;;;;5075674;28;20561;-80
2023/12/16 02:46:26;;;;;;;20.73;5.20;;;;;;;;;;5075911;28;20439;-80
2023/12/16 02:48:53;;;;;;;12.10;5.20;;;;;;;;;;5074420;28;20959;-80
2023/12/16 02:51:20;;;;;;;10.13;4.73;;;;;;;;;;5075859;28;21054;-80
2023/12/16 02:53:47;;;;;;;17.70;5.40;;;;;;;;;;5075693;28;20434;-80
2023/12/16 02:56:14;;;;;;;9.73;5.10;;;;;;;;;;5075652;28;20818;-80
2023/12/16 02:58:42;;;;;;;11.63;5.30;;;;;;;;;;5075212;28;20471;-81
2023/12/16 03:01:08;;;;;;;10.80;4.90;;;;;;;;;;5076096;28;20522;-80
2023/12/16 03:03:35;;;;;;;14.67;4.93;;;;;;;;;;5075232;28;20455;-79
2023/12/16 03:06:04;;;;;;;7.87;4.50;;;;;;;;;;5075794;28;20455;-80
2023/12/16 03:08:31;;;;;;;8.40;4.40;;;;;;;;;;5075806;28;20529;-80
2023/12/16 03:10:57;;;;;;;13.20;3.93;;;;;;;;;;5057379;28;20825;-80
2023/12/16 03:13:24;;;;;;;9.13;4.50;;;;;;;;;;5075239;28;20474;-80
2023/12/16 03:15:52;;;;;;;10.47;4.50;;;;;;;;;;5075347;28;20558;-81
2023/12/16 03:18:19;;;;;;;9.40;4.83;;;;;;;;;;5075750;28;20478;-80
2023/12/16 03:20:45;;;;;;;17.20;4.87;;;;;;;;;;5074214;28;20474;-80
2023/12/16 03:23:14;;;;;;;8.87;4.60;;;;;;;;;;5075449;28;20442;-80
2023/12/16 03:25:42;;;;;;;13.47;4.37;;;;;;;;;;5073608;28;20545;-80
2023/12/16 03:28:09;;;;;;;10.93;4.33;;;;;;;;;;5075579;28;20442;-80
2023/12/16 03:30:35;;;;;;;11.03;3.90;;;;;;;;;;5074910;28;20473;-80
2023/12/16 03:33:03;;;;;;;18.20;4.80;;;;;;;;;;5075665;28;20443;-80
2023/12/16 03:35:30;;;;;;;7.67;4.33;;;;;;;;;;5074702;28;20838;-80
2023/12/16 03:37:57;;;;;;;8.43;4.10;;;;;;;;;;5073695;28;20446;-80
2023/12/16 03:40:23;;;;;;;14.23;4.33;;;;;;;;;;5075198;28;20999;-80
2023/12/16 03:42:50;;;;;;;15.63;4.60;;;;;;;;;;5075373;28;20439;-80
2023/12/16 03:45:17;;;;;;;11.77;4.17;;;;;;;;;;5074308;28;20842;-80
2023/12/16 03:47:43;;;;;;;11.03;4.00;;;;;;;;;;5073562;28;20530;-80
2023/12/16 03:50:11;;;;;;;14.47;4.10;;;;;;;;;;5074416;28;20859;-80
2023/12/16 03:52:38;;;;;;;7.13;4.10;;;;;;;;;;5073380;28;20450;-80
2023/12/16 03:55:05;;;;;;;12.67;4.47;;;;;;;;;;5074255;28;20477;-80
2023/12/16 03:57:33;;;;;;;18.13;4.83;;;;;;;;;;5074520;28;20446;-80
2023/12/16 04:00:00;;;;;;;11.57;4.27;;;;;;;;;;5074070;28;20886;-81
2023/12/16 04:02:26;;;;;;;17.13;5.13;;;;;;;;;;5074975;28;20431;-80
2023/12/16 04:04:53;;;;;;;7.80;4.00;;;;;;;;;;5074177;28;20932;-80
2023/12/16 04:07:21;;;;;;;10.70;4.77;;;;;;;;;;5074768;28;20439;-80
2023/12/16 04:09:47;;;;;;;11.33;3.87;;;;;;;;;;5074037;28;20553;-80
2023/12/16 04:12:14;;;;;;;10.93;4.10;;;;;;;;;;5074648;28;20431;-80
2023/12/16 04:14:40;;;;;;;9.30;4.77;;;;;;;;;;5072594;28;20481;-80
2023/12/16 04:17:07;;;;;;;11.90;4.50;;;;;;;;;;5074680;28;20546;-80
2023/12/16 04:19:34;;;;;;;7.90;4.20;;;;;;;;;;5073967;28;20474;-80
2023/12/16 04:22:02;;;;;;;11.83;4.50;;;;;;;;;;5074108;28;20530;-80
2023/12/16 04:24:30;;;;;;;14.63;5.40;;;;;;;;;;5071964;28;20834;-81
2023/12/16 04:26:56;;;;;;;10.80;4.00;;;;;;;;;;5074269;28;20431;-80
2023/12/16 04:29:23;;;;;;;14.70;4.90;;;;;;;;;;5073836;28;20471;-80
2023/12/16 04:31:49;;;;;;;9.23;4.20;;;;;;;;;;5074116;28;20427;-80
2023/12/16 04:34:17;;;;;;;9.10;4.20;;;;;;;;;;5072555;28;20542;-80
2023/12/16 04:36:44;;;;;;;9.43;3.47;;;;;;;;;;5074289;28;20439;-80
2023/12/16 04:39:12;;;;;;;8.13;3.63;;;;;;;;;;5072072;28;20473;-80
2023/12/16 04:41:40;;;;;;;13.10;5.40;;;;;;;;;;5073770;28;20500;-81
2023/12/16 04:44:08;;;;;;;12.60;5.20;;;;;;;;;;5073421;28;20481;-80
2023/12/16 04:46:35;;;;;;;6.83;3.87;;;;;;;;;;5074009;28;20478;-80
2023/12/16 04:49:01;;;;;;;18.20;4.23;;;;;;;;;;5073566;28;20549;-80
2023/12/16 04:51:28;;;;;;;8.43;4.70;;;;;;;;;;5073876;28;20526;-80
2023/12/16 04:53:56;;;;;;;16.17;4.40;;;;;;;;;;5071906;28;20482;-80
2023/12/16 04:56:22;;;;;;;9.80;4.33;;;;;;;;;;5073619;28;20455;-80
2023/12/16 04:58:50;;;;;;;9.67;4.20;;;;;;;;;;5073067;28;21004;-80
2023/12/16 05:01:16;;;;;;;10.73;3.50;;;;;;;;;;5073585;28;20534;-80
2023/12/16 05:03:43;;;;;;;9.17;3.70;;;;;;;;;;5073249;28;20522;-80
2023/12/16 05:06:10;;;;;;;11.90;4.30;;;;;;;;;;5073680;28;20811;-80
2023/12/16 05:08:36;;;;;;;13.50;3.83;;;;;;;;;;5072062;28;20830;-80
2023/12/16 05:11:03;;;;;;;9.93;4.53;;;;;;;;;;5073633;28;20437;-80
2023/12/16 05:13:30;;;;;;;12.97;4.70;;;;;;;;;;5073557;28;20446;-80
2023/12/16 05:15:57;;;;;;;5.60;3.93;;;;;;;;;;5072089;28;20475;-80
2023/12/16 05:18:24;;;;;;;15.90;5.13;;;;;;;;;;5073289;28;20439;-80
2023/12/16 05:20:50;;;;;;;15.80;4.30;;;;;;;;;;5072295;28;20474;-80
2023/12/16 05:23:17;;;;;;;12.63;3.87;;;;;;;;;;5073688;28;20869;-80
2023/12/16 05:25:44;;;;;;;7.60;4.27;;;;;;;;;;5072828;28;21012;-80
2023/12/16 05:28:12;;;;;;;12.87;4.00;;;;;;;;;;5071909;28;20442;-80
2023/12/16 05:30:38;;;;;;;12.90;4.50;;;;;;;;;;5071482;28;20478;-80
2023/12/16 05:33:06;;;;;;;10.73;4.87;;;;;;;;;;5072998;28;20447;-80
2023/12/16 05:35:32;;;;;;;9.10;4.27;;;;;;;;;;5074771;28;20474;-80
2023/12/16 05:37:59;;;;;;;16.73;4.90;;;;;;;;;;5077703;28;20430;-81
2023/12/16 05:40:25;;;;;;;15.60;4.00;;;;;;;;;;5077121;28;20475;-80
2023/12/16 05:42:52;;;;;;;13.03;4.60;;;;;;;;;;5077193;28;20449;-80
2023/12/16 05:45:18;;;;;;;12.23;3.77;;;;;;;;;;5075431;28;20995;-80
2023/12/16 05:47:45;;;;;;;16.20;4.23;;;;;;;;;;5077593;28;20442;-80
2023/12/16 05:50:13;;;;;;;9.77;3.37;;;;;;;;;;5076689;28;20845;-80
2023/12/16 05:52:39;;;;;;;11.97;4.90;;;;;;;;;;5077312;28;20492;-80
2023/12/16 05:55:06;;;;;;;8.30;3.63;;;;;;;;;;5076476;28;20475;-80
2023/12/16 05:57:32;;;;;;;18.47;5.17;;;;;;;;;;5076818;28;21019;-80
2023/12/16 05:59:59;;;;;;;17.27;4.60;;;;;;;;;;5076495;28;20474;-80
2023/12/16 06:02:26;;;;;;;9.83;3.70;;;;;;;;;;5077426;28;20811;-80
2023/12/16 06:04:52;;;;;;;19.03;5.40;;;;;;;;;;5076426;28;20493;-80
2023/12/16 06:07:20;;;;;;;12.80;4.77;;;;;;;;;;5076696;28;20434;-80
2023/12/16 06:09:46;;;;;;;11.23;4.17;;;;;;;;;;5076573;28;20466;-80
2023/12/16 06:12:13;;;;;;;23.67;8.40;;;;;;;;;;5076909;28;20435;-80
2023/12/16 06:14:39;;;;;;;11.50;3.70;;;;;;;;;;5076109;28;20563;-80
2023/12/16 06:17:06;;;;;;;10.03;4.93;;;;;;;;;;5075876;28;20830;-80
2023/12/16 06:19:32;;;;;;;13.03;5.03;;;;;;;;;;5076319;28;20474;-80
2023/12/16 06:21:59;;;;;;;13.80;5.00;;;;;;;;;;5076773;28;20442;-80
2023/12/16 06:24:27;;;;;;;12.17;4.90;;;;;;;;;;5075079;28;20481;-80
2023/12/16 06:26:54;;;;;;;12.90;4.47;;;;;;;;;;5077053;28;20462;-80
2023/12/16 06:29:21;;;;;;;16.70;5.43;;;;;;;;;;5076285;28;20979;-80
2023/12/16 06:31:47;;;;;;;14.97;4.77;;;;;;;;;;5078224;28;20525;-82
2023/12/16 06:34:16;;;;;;;17.53;5.83;;;;;;;;;;5075979;28;20489;-82
2023/12/16 06:36:42;;;;;;;13.30;4.90;;;;;;;;;;5075278;28;20439;-82
2023/12/16 06:39:09;;;;;;;18.67;5.07;;;;;;;;;;5074604;28;21007;-82
2023/12/16 06:41:37;;;;;;;9.40;4.50;;;;;;;;;;5076775;28;20441;-81
2023/12/16 06:44:05;;;;;;;13.90;4.73;;;;;;;;;;5075827;28;20856;-82
2023/12/16 06:46:32;;;;;;;13.43;4.70;;;;;;;;;;5076459;28;20463;-81
2023/12/16 06:48:58;;;;;;;12.20;4.87;;;;;;;;;;5072792;28;20473;-80
2023/12/16 06:51:25;;;;;;;13.70;4.87;;;;;;;;;;5076266;28;20933;-82
2023/12/16 06:53:52;;;;;;;9.60;4.33;;;;;;;;;;5075794;28;20475;-82
2023/12/16 06:56:19;;;;;;;14.80;4.93;;;;;;;;;;5075969;28;20827;-81
2023/12/16 06:58:48;;;;;;;22.57;5.03;;;;;;;;;;5078111;28;20481;-81
2023/12/16 07:01:16;;;;;;;12.93;6.00;;;;;;;;;;5079142;28;20482;-80
2023/12/16 07:03:42;;;;;;;13.33;5.37;;;;;;;;;;5075840;28;20467;-83
2023/12/16 07:06:09;;;;;;;14.57;4.40;;;;;;;;;;5076290;28;20457;-80
2023/12/16 07:08:37;;;;;;;17.03;5.97;;;;;;;;;;5075666;28;20471;-80
2023/12/16 07:11:04;;;;;;;20.10;6.30;;;;;;;;;;5075748;28;20466;-79
2023/12/16 07:13:31;;;;;;;13.37;6.37;;;;;;;;;;5075128;27;20463;-82
2023/12/16 07:16:03;;;;;;;15.40;5.17;;;;;;;;;;5074725;28;20826;-80
2023/12/16 07:18:29;;;;;;;15.50;5.93;;;;;;;;;;5074696;28;20530;-82
2023/12/16 07:20:56;;;;;;;13.53;6.57;;;;;;;;;;5075136;28;20489;-80
2023/12/16 07:23:23;;;;;;;19.70;6.60;;;;;;;;;;5074777;28;20541;-82
2023/12/16 07:25:50;;;;;;;19.13;6.40;;;;;;;;;;5074754;28;20824;-82
2023/12/16 07:28:17;;;;;;;18.23;6.70;;;;;;;;;;5074703;28;20474;-81
2023/12/16 07:30:45;;;;;;;23.67;8.50;;;;;;;;;;5075291;28;20461;-80
2023/12/16 07:33:13;;;;;;;17.27;7.50;;;;;;;;;;5073346;28;20831;-79
2023/12/16 07:35:40;;;;;;;35.67;10.43;;;;;;;;;;5075219;28;20464;-81
2023/12/16 07:38:07;;;;;;;17.20;6.87;;;;;;;;;;5074512;28;20546;-80
2023/12/16 07:40:35;;;;;;;19.93;8.87;;;;;;;;;;5074932;28;20474;-79
2023/12/16 07:43:02;;;;;;;13.30;6.30;;;;;;;;;;5074789;28;20466;-80
2023/12/16 07:45:28;;;;;;;25.70;8.43;;;;;;;;;;5074845;28;20987;-82
2023/12/16 07:47:55;;;;;;;23.20;6.57;;;;;;;;;;5076057;28;20849;-80
2023/12/16 07:50:22;;;;;;;23.37;8.70;;;;;;;;;;5076442;28;20446;-82
2023/12/16 07:52:51;;;;;;;14.53;6.83;;;;;;;;;;5073446;28;20477;-81
2023/12/16 07:55:18;;;;;;;21.13;7.73;;;;;;;;;;5074975;28;20460;-81
2023/12/16 07:57:46;;;;;;;17.47;6.70;;;;;;;;;;5073854;28;20463;-81
2023/12/16 08:00:12;;;;;;;20.53;8.13;;;;;;;;;;5074669;28;20479;-81
2023/12/16 08:02:39;;;;;;;21.83;7.27;;;;;;;;;;5074558;28;20467;-81
2023/12/16 08:05:06;;;;;;;24.17;7.23;;;;;;;;;;5074400;28;20972;-81
2023/12/16 08:07:35;;;;;;;24.87;8.17;;;;;;;;;;5074272;28;20804;-81
2023/12/16 08:10:02;;;;;;;21.70;7.50;;;;;;;;;;5073234;28;20967;-82
2023/12/16 08:12:28;;;;;;;20.53;7.87;;;;;;;;;;5073790;28;20496;-81
2023/12/16 08:14:55;;;;;;;18.70;7.47;;;;;;;;;;5074708;28;20459;-82
2023/12/16 08:17:21;;;;;;;20.50;7.53;;;;;;;;;;5074195;28;20443;-82
2023/12/16 08:19:48;;;;;;;16.53;8.90;;;;;;;;;;5074046;28;20483;-82
2023/12/16 08:22:17;;;;;;;24.63;7.93;;;;;;;;;;5074044;28;20474;-81
2023/12/16 08:24:44;;;;;;;32.90;8.83;;;;;;;;;;5074227;28;20474;-82
2023/12/16 08:27:13;;;;;;;31.17;9.20;;;;;;;;;;5073507;28;20873;-82
2023/12/16 08:29:39;;;;;;;22.60;7.20;;;;;;;;;;5074262;28;20443;-82
2023/12/16 08:32:06;;;;;;;24.53;8.03;;;;;;;;;;5074261;28;20521;-81
2023/12/16 08:34:33;;;;;;;17.53;7.63;;;;;;;;;;5076194;28;20476;-79
2023/12/16 08:37:00;;;;;;;20.60;7.77;;;;;;;;;;5073509;28;20450;-80
2023/12/16 08:39:27;;;;;;;22.87;8.80;;;;;;;;;;5073992;28;20550;-81
2023/12/16 08:41:55;;;;;;;27.80;7.70;;;;;;;;;;5074315;28;20486;-82
2023/12/16 08:44:21;;;;;;;18.33;7.33;;;;;;;;;;5073711;28;20474;-81
2023/12/16 08:46:48;;;;;;;19.10;8.70;;;;;;;;;;5074277;28;21151;-79
2023/12/16 08:49:14;;;;;;;24.33;8.10;;;;;;;;;;5073269;28;20485;-80
2023/12/16 08:51:41;;;;;;;18.13;9.80;;;;;;;;;;5074159;28;21020;-82
2023/12/16 08:54:07;;;;;;;26.33;9.40;;;;;;;;;;5073634;28;20481;-80
2023/12/16 08:56:34;;;;;;;19.53;9.37;;;;;;;;;;5072412;28;20453;-80
2023/12/16 08:59:02;;;;;;;18.50;9.33;;;;;;;;;;5072156;28;20471;-82
2023/12/16 09:01:29;;;;;;;28.77;10.43;;;;;;;;;;5073422;28;20479;-81
2023/12/16 09:03:57;;;;;;;17.90;7.53;;;;;;;;;;5073543;28;20471;-81
2023/12/16 09:06:24;;;;;;;30.37;10.33;;;;;;;;;;5073604;28;20921;-81
2023/12/16 09:08:50;;;;;;;28.97;10.33;;;;;;;;;;5073071;28;21065;-82
2023/12/16 09:11:17;;;;;;;37.13;11.10;;;;;;;;;;5073292;28;20443;-81
2023/12/16 09:13:44;;;;;;;36.37;11.83;;;;;;;;;;5072130;28;20482;-82
2023/12/16 09:16:12;;;;;;;33.50;12.63;;;;;;;;;;5073747;28;20435;-81
2023/12/16 09:18:38;;;;;;;28.23;11.43;;;;;;;;;;5072844;28;20473;-82
2023/12/16 09:21:05;;;;;;;31.70;13.13;;;;;;;;;;5073657;28;20526;-80
2023/12/16 09:23:31;;;;;;;22.23;10.90;;;;;;;;;;5072582;28;20473;-81
2023/12/16 09:25:58;;;;;;;29.73;13.00;;;;;;;;;;5073332;28;20463;-82
2023/12/16 09:28:25;;;;;;;34.00;16.30;;;;;;;;;;5073201;28;20542;-81
2023/12/16 09:30:51;;;;;;;32.13;20.37;;;;;;;;;;5072314;28;20470;-81
2023/12/16 09:33:19;;;;;;;36.10;18.23;;;;;;;;;;5072811;28;20478;-82
2023/12/16 09:35:45;;;;;;;34.53;14.23;;;;;;;;;;5072989;28;20995;-81
2023/12/16 09:38:12;;;;;;;46.40;21.63;;;;;;;;;;5072738;28;20548;-81
2023/12/16 09:40:40;;;;;;;31.43;13.20;;;;;;;;;;5073333;28;20511;-82
2023/12/16 09:43:14;;;;;;;45.60;14.60;;;;;;;;;;5073388;28;20459;-82
2023/12/16 09:45:41;;;;;;;31.70;13.43;;;;;;;;;;5071825;28;20470;-81
2023/12/16 09:48:08;;;;;;;34.37;14.20;;;;;;;;;;5072901;28;20473;-81
2023/12/16 09:50:37;;;;;;;20.77;12.57;;;;;;;;;;5071979;28;20439;-81
2023/12/16 09:53:04;;;;;;;27.77;15.17;;;;;;;;;;5072854;28;20471;-81
2023/12/16 09:55:30;;;;;;;31.10;12.13;;;;;;;;;;5071444;28;20471;-82
2023/12/16 09:57:58;;;;;;;31.60;13.17;;;;;;;;;;5072397;28;20470;-81
2023/12/16 10:00:26;;;;;;;30.43;13.27;;;;;;;;;;5073092;28;20479;-82
2023/12/16 10:02:54;;;;;;;36.90;14.83;;;;;;;;;;5072450;28;20828;-81
2023/12/16 10:05:22;;;;;;;36.60;13.70;;;;;;;;;;5073018;28;20466;-82
2023/12/16 10:07:51;;;;;;;36.60;14.57;;;;;;;;;;5071980;28;20471;-81
2023/12/16 10:10:17;;;;;;;28.43;14.63;;;;;;;;;;5073094;28;20525;-81
2023/12/16 10:12:45;;;;;;;41.87;15.10;;;;;;;;;;5072178;28;20474;-81
2023/12/16 10:15:12;;;;;;;31.43;16.60;;;;;;;;;;5071834;28;20546;-82
2023/12/16 10:17:39;;;;;;;35.50;15.00;;;;;;;;;;5072325;28;20465;-80
2023/12/16 10:20:07;;;;;;;32.50;13.17;;;;;;;;;;5054841;28;20443;-82
2023/12/16 10:22:35;;;;;;;34.73;13.73;;;;;;;;;;5075916;28;20572;-81
2023/12/16 10:25:03;;;;;;;29.50;13.77;;;;;;;;;;5076162;28;20542;-81
2023/12/16 10:27:30;;;;;;;35.10;15.10;;;;;;;;;;5076023;28;20529;-82
2023/12/16 10:29:59;;;;;;;30.23;14.20;;;;;;;;;;5076181;28;20443;-82
2023/12/16 10:32:27;;;;;;;33.90;14.57;;;;;;;;;;5077352;28;20864;-80
2023/12/16 10:34:55;;;;;;;30.43;16.43;;;;;;;;;;5079899;28;20557;-82
2023/12/16 10:37:22;;;;;;;36.63;19.30;;;;;;;;;;5076092;28;20488;-81
2023/12/16 10:39:49;;;;;;;32.87;14.73;;;;;;;;;;5075213;28;20445;-81
2023/12/16 10:42:16;;;;;;;30.30;15.97;;;;;;;;;;5075514;28;21018;-82
2023/12/16 10:44:43;;;;;;;34.40;16.70;;;;;;;;;;5076209;28;20458;-81
2023/12/16 10:47:10;;;;;;;41.17;18.57;;;;;;;;;;5076143;28;20439;-81
2023/12/16 10:49:40;;;;;;;35.07;17.07;;;;;;;;;;5055430;28;21021;-80
2023/12/16 10:52:07;;;;;;;40.20;18.53;;;;;;;;;;5056295;28;20507;-81
2023/12/16 10:54:36;;;;;;;48.40;19.23;;;;;;;;;;5055294;28;20471;-82
2023/12/16 10:57:08;;;;;;;37.80;17.07;;;;;;;;;;5055651;28;20506;-81
2023/12/16 10:59:40;;;;;;;35.70;19.10;;;;;;;;;;5055360;28;20478;-81
2023/12/16 11:02:11;;;;;;;51.87;18.87;;;;;;;;;;5055935;28;20460;-81
2023/12/16 11:04:39;;;;;;;45.27;20.00;;;;;;;;;;5055295;28;21044;-82
2023/12/16 11:07:06;;;;;;;55.43;22.47;;;;;;;;;;5055838;28;20451;-81
2023/12/16 11:09:33;;;;;;;47.23;23.13;;;;;;;;;;5055182;28;20475;-81
2023/12/16 11:12:01;;;;;;;47.87;28.93;;;;;;;;;;5055695;28;20440;-81
2023/12/16 11:14:28;;;;;;;51.50;28.73;;;;;;;;;;5053758;28;20471;-82
2023/12/16 11:17:08;;;;;;;36.10;19.50;;;;;;;;;;5055799;28;20531;-81
2023/12/16 11:19:37;;;;;;;40.13;16.70;;;;;;;;;;5055482;28;20985;-81
2023/12/16 11:22:04;;;;;;;37.97;16.00;;;;;;;;;;5055212;28;20490;-82
2023/12/16 11:24:38;;;;;;;34.90;17.00;;;;;;;;;;5055602;28;20474;-80
2023/12/16 11:27:05;;;;;;;32.57;17.63;;;;;;;;;;5054589;28;20428;-82
2023/12/16 11:29:32;;;;;;;36.47;17.70;;;;;;;;;;5054823;28;20897;-81
2023/12/16 11:32:00;;;;;;;38.93;18.10;;;;;;;;;;5055202;28;20436;-82
2023/12/16 11:34:43;;;;;;;34.33;17.37;;;;;;;;;;5054107;28;20476;-81
2023/12/16 11:37:09;;;;;;;36.80;17.23;;;;;;;;;;5055591;28;21036;-81
2023/12/16 11:39:36;;;;;;;40.00;20.70;;;;;;;;;;5075358;28;20439;-82
2023/12/16 11:42:03;;;;;;;34.40;16.20;;;;;;;;;;5078095;28;20506;-84
2023/12/16 11:44:45;;;;;;;41.30;17.87;;;;;;;;;;5079196;28;20470;-83
2023/12/16 11:47:20;;;;;;;33.57;16.53;;;;;;;;;;5074378;28;20450;-82
2023/12/16 11:49:48;;;;;;;39.10;17.37;;;;;;;;;;5075236;28;20506;-82
2023/12/16 11:52:18;;;;;;;47.67;18.10;;;;;;;;;;5074932;28;20438;-80
2023/12/16 11:54:44;;;;;;;37.10;17.33;;;;;;;;;;5074442;28;21000;-81
2023/12/16 11:57:11;;;;;;;42.63;19.50;;;;;;;;;;5074351;28;20909;-80
2023/12/16 11:59:37;;;;;;;33.47;16.97;;;;;;;;;;5074374;28;20445;-81
2023/12/16 12:02:04;;;;;;;41.03;17.43;;;;;;;;;;5074943;28;20479;-81
2023/12/16 12:04:32;;;;;;;28.60;14.83;;;;;;;;;;5074107;28;20479;-81
2023/12/16 12:06:58;;;;;;;34.40;16.00;;;;;;;;;;5073283;28;20443;-81
2023/12/16 12:09:25;;;;;;;44.93;18.87;;;;;;;;;;5074196;28;20465;-81
2023/12/16 12:11:52;;;;;;;47.13;21.00;;;;;;;;;;5077619;28;20522;-81
2023/12/16 12:14:18;;;;;;;47.80;26.33;;;;;;;;;;5077362;28;20549;-81
2023/12/16 12:16:46;;;;;;;38.97;17.77;;;;;;;;;;5074809;28;20446;-80
2023/12/16 12:19:13;;;;;;;40.50;19.43;;;;;;;;;;5074076;28;20467;-81
2023/12/16 12:21:43;;;;;;;87.53;49.20;;;;;;;;;;5074492;28;20486;-81
2023/12/16 12:24:09;;;;;;;39.03;20.83;;;;;;;;;;5073534;28;20997;-81
2023/12/16 12:26:36;;;;;;;95.37;51.73;;;;;;;;;;5074000;28;20521;-81
2023/12/16 12:29:02;;;;;;;40.17;22.60;;;;;;;;;;5073645;28;20550;-81
2023/12/16 12:31:29;;;;;;;29.23;16.33;;;;;;;;;;5074190;28;20438;-81
2023/12/16 12:33:57;;;;;;;40.23;17.90;;;;;;;;;;5073683;28;20477;-81
2023/12/16 12:36:23;;;;;;;41.57;18.30;;;;;;;;;;5073942;28;20924;-81
2023/12/16 12:38:54;;;;;;;44.43;18.03;;;;;;;;;;5073626;28;20470;-81
2023/12/16 12:41:21;;;;;;;30.23;17.90;;;;;;;;;;5078197;28;20478;-80
2023/12/16 12:43:47;;;;;;;34.00;17.47;;;;;;;;;;5076309;28;20542;-80
2023/12/16 12:46:16;;;;;;;31.53;18.83;;;;;;;;;;5078334;28;20891;-80
2023/12/16 12:48:52;;;;;;;36.13;17.73;;;;;;;;;;5073699;28;20478;-81
2023/12/16 12:51:19;;;;;;;41.83;20.07;;;;;;;;;;5074058;28;20407;-80
2023/12/16 12:53:54;;;;;;;44.87;21.97;;;;;;;;;;5073697;28;20471;-82
2023/12/16 12:56:22;;;;;;;36.40;17.33;;;;;;;;;;5073595;28;20954;-79
2023/12/16 12:58:49;;;;;;;36.57;18.00;;;;;;;;;;5073075;28;20554;-79
2023/12/16 13:01:16;;;;;;;45.53;19.50;;;;;;;;;;5073718;28;20947;-79
2023/12/16 13:03:43;;;;;;;30.70;18.20;;;;;;;;;;5074162;28;20816;-80
2023/12/16 13:06:09;;;;;;;33.63;20.77;;;;;;;;;;5074018;28;20450;-81
2023/12/16 13:08:36;;;;;;;35.43;18.50;;;;;;;;;;5073084;28;20935;-80
2023/12/16 13:11:03;;;;;;;30.87;18.10;;;;;;;;;;5072369;28;20531;-80
2023/12/16 13:13:31;;;;;;;34.00;19.07;;;;;;;;;;5073401;28;20470;-79
2023/12/16 13:15:57;;;;;;;34.03;17.30;;;;;;;;;;5074606;28;20470;-80
2023/12/16 13:18:24;;;;;;;32.03;18.43;;;;;;;;;;5073856;28;20467;-81
2023/12/16 13:20:50;;;;;;;39.40;19.80;;;;;;;;;;5071836;28;20451;-81
2023/12/16 13:23:17;;;;;;;30.83;18.30;;;;;;;;;;5072893;28;20467;-81
2023/12/16 13:25:44;;;;;;;37.23;18.47;;;;;;;;;;5073632;28;20474;-81
2023/12/16 13:28:10;;;;;;;31.03;18.40;;;;;;;;;;5073081;28;20463;-81
2023/12/16 13:30:38;;;;;;;37.20;17.60;;;;;;;;;;5074245;28;20441;-81
2023/12/16 13:33:05;;;;;;;33.60;18.87;;;;;;;;;;5073815;28;20471;-81
2023/12/16 13:35:31;;;;;;;35.40;17.00;;;;;;;;;;5073821;28;20465;-81
2023/12/16 13:37:58;;;;;;;33.90;18.10;;;;;;;;;;5071999;28;20874;-80
2023/12/16 13:40:25;;;;;;;27.03;15.83;;;;;;;;;;5073783;28;21007;-82
2023/12/16 13:42:51;;;;;;;32.40;15.83;;;;;;;;;;5073162;28;20992;-80
2023/12/16 13:45:18;;;;;;;25.13;15.70;;;;;;;;;;5072061;28;20456;-81
2023/12/16 13:47:45;;;;;;;22.50;15.00;;;;;;;;;;5071398;28;21079;-80
2023/12/16 13:50:12;;;;;;;30.47;16.50;;;;;;;;;;5073454;28;20522;-80
2023/12/16 13:52:38;;;;;;;27.20;16.80;;;;;;;;;;5072589;28;20469;-80
2023/12/16 13:55:05;;;;;;;27.67;17.30;;;;;;;;;;5073095;28;20455;-80
2023/12/16 13:57:32;;;;;;;29.77;17.20;;;;;;;;;;5076009;28;20824;-80
2023/12/16 13:59:59;;;;;;;40.60;16.70;;;;;;;;;;5077317;28;20431;-80
2023/12/16 14:02:26;;;;;;;21.13;14.37;;;;;;;;;;5076492;28;20844;-80
2023/12/16 14:04:54;;;;;;;23.97;14.93;;;;;;;;;;5077159;28;20454;-80
2023/12/16 14:07:20;;;;;;;22.40;14.60;;;;;;;;;;5076743;28;20446;-80
2023/12/16 14:09:47;;;;;;;19.80;12.67;;;;;;;;;;5077031;28;20465;-79
2023/12/16 14:12:13;;;;;;;23.70;14.67;;;;;;;;;;5076587;28;20442;-79
2023/12/16 14:14:40;;;;;;;18.70;14.30;;;;;;;;;;5076568;28;20461;-80
2023/12/16 14:17:07;;;;;;;23.70;13.80;;;;;;;;;;5076530;28;20932;-81
2023/12/16 14:19:33;;;;;;;19.73;14.20;;;;;;;;;;5076188;28;20470;-81
2023/12/16 14:22:01;;;;;;;21.17;13.30;;;;;;;;;;5076458;28;20991;-80
2023/12/16 14:24:28;;;;;;;21.10;13.10;;;;;;;;;;5076160;28;20471;-80
2023/12/16 14:26:54;;;;;;;17.30;13.83;;;;;;;;;;5076862;28;20438;-81